Home > Products > Valid Products > TAF

000
FTUS45 KTFX 261800 AAA
TAFGTF
TAF AMD
KGTF 261806Z 2618/2718 09006KT 1SM -SN BR BKN004 OVC020
      TEMPO 2618/2621 4SM -SN BR SCT020 OVC035
     FM262100 11007KT 6SM -SHSN BR SCT030 OVC045
      TEMPO 2621/2623 2SM -SHSN BR BKN025
     FM270200 21008KT P6SM SCT060 BKN100
     FM270800 21018KT P6SM SCT060 BKN100=



000
FTUS45 KTFX 261800 AAA
TAFBZN
TAF AMD
KBZN 261804Z 2618/2718 VRB03KT 1/2SM FZFG OVC002
     FM262000 25008KT P6SM VCSH SCT060 OVC100
     FM270200 VRB05KT P6SM SCT070 BKN120
     FM270900 21008KT P6SM VCSH SCT060 BKN100=



000
FTUS45 KTFX 261700 RRA
TAFGTF
TAF
KGTF 261743Z 2618/2718 09006KT 1SM -SN BR SCT010 OVC020
      TEMPO 2618/2621 4SM -SN BR SCT020 OVC035
     FM262100 11007KT 6SM -SHSN BR SCT030 OVC045
      TEMPO 2621/2623 2SM -SHSN BR BKN025
     FM270200 21008KT P6SM SCT060 BKN100
     FM270800 21018KT P6SM SCT060 BKN100=



000
FTUS45 KTFX 261700 RRA
TAFHVR
TAF
KHVR 261743Z 2618/2718 08007KT 6SM BR VCSH SCT030 OVC060
      TEMPO 2618/2621 3SM -SN BR BKN025
     FM262100 09009KT 3SM -SN BR SCT015 OVC025
      TEMPO 2702/2706 1SM -SN BR BKN008
     FM270900 09011KT P6SM VCSH SCT020 OVC035
     FM271400 21011KT P6SM SCT040 OVC070=



000
FTUS45 KTFX 261700 RRA
TAFBZN
TAF
KBZN 261743Z 2618/2718 VRB03KT 3SM BR OVC005
      TEMPO 2618/2619 5SM BR SCT010 SCT070 BKN120
     FM261900 25008KT P6SM VCSH SCT060 OVC100
     FM270200 VRB05KT P6SM SCT070 BKN120
     FM270900 21008KT P6SM VCSH SCT060 BKN100=



000
FTUS45 KTFX 261700 RRA
TAFCTB
TAF
KCTB 261743Z 2618/2718 13006KT 2SM -SN OVC004
      TEMPO 2618/2620 4SM -SN BR SCT005 OVC015
     FM262000 15007KT 5SM -SN BR SCT008 OVC018
     FM270200 19010KT P6SM VCSH SCT050 BKN080
     FM271000 24018KT P6SM SCT060 BKN100=



000
FTUS45 KTFX 261700 RRA
TAFHLN
TAF
KHLN 261743Z 2618/2718 VRB04KT 1SM -SN BR SCT010 OVC020
      TEMPO 2618/2620 4SM -SN BR SCT020 OVC035
     FM262000 25006KT 6SM -SHSN BR SCT035 BKN060
      TEMPO 2620/2622 4SM -SHSN BR BKN035
     FM262200 26008KT P6SM VCSH SCT060 OVC090
     FM270100 VRB05KT P6SM SCT070 BKN120
     FM270800 25008KT P6SM VCSH SCT060 BKN100=



000
FTUS45 KTFX 261700 RRA
TAFLWT
TAF
KLWT 261743Z 2618/2718 11006KT 2SM -SN BR SCT015 OVC025
      TEMPO 2618/2621 5SM -SN BR SCT025 OVC040
     FM262100 14007KT 6SM -SHSN BR SCT035 OVC050
      TEMPO 2621/2623 3SM -SHSN BR BKN035
     FM270200 21008KT P6SM SCT060 BKN100
     FM270800 23018KT P6SM SCT060 BKN100=



000
FTUS45 KTFX 261600 AAA
TAFLWT
TAF AMD
KLWT 261652Z 2617/2712 VRB05KT 3SM -SN BR SCT015 OVC025
      TEMPO 2617/2620 1SM -SN BR BKN015
     FM262000 VRB06KT 5SM -SN BR SCT025 BKN040
      TEMPO 2620/2624 3SM -SN BR BKN030
     FM270600 18008KT P6SM SCT040 BKN070=



000
FTUS45 KTFX 261600 AAD
TAFCTB
TAF AMD
KCTB 261650Z 2617/2712 VRB04KT 2SM -SN OVC002
      TEMPO 2617/2619 4SM -SN BR SCT002 OVC015
     FM261900 VRB06KT 4SM -SN BR SCT008 OVC018
     FM262300 22010KT P6SM SCT040 BKN060
     FM270700 24016KT P6SM SCT050 BKN100=



000
FTUS45 KTFX 261600 AAA
TAFGTF
TAF AMD
KGTF 261649Z 2617/2712 VRB05KT 4SM -SN BR SCT015 OVC025
      TEMPO 2617/2620 1SM -SN BR BKN010
     FM262000 VRB03KT 6SM -SHSN BR SCT025 BKN050
      TEMPO 2620/2623 3SM -SN BR BKN030
     FM270300 21008KT P6SM BKN070=



000
FTUS45 KTFX 261600 AAB
TAFHLN
TAF AMD
KHLN 261646Z 2617/2712 VRB04KT 1SM -SN BR BKN008 OVC018
      TEMPO 2617/2619 3SM -SN BR SCT010 OVC020
     FM261900 VRB03KT 6SM -SHSN BR SCT025 BKN050
      TEMPO 2619/2621 3SM -SHSN BR BKN030
     FM262200 VRB03KT P6SM VCSH OVC070
     FM270200 VRB03KT P6SM BKN100=



000
FTUS45 KTFX 261600 AAA
TAFBZN
TAF AMD
KBZN 261645Z 2617/2712 VRB03KT 2SM BR BKN003
      TEMPO 2617/2619 5SM BR SCT010 BKN060
     FM261900 VRB05KT P6SM VCSH OVC070
     FM270000 VRB05KT P6SM BKN100=



000
FTUS45 KTFX 261400 AAC
TAFCTB
TAF AMD
KCTB 261447Z 2615/2712 VRB04KT P6SM -SN OVC002
      TEMPO 2615/2617 3SM -SN BR SCT002 OVC015
     FM261700 VRB06KT 3SM -SN BR OVC015
     FM262300 22010KT P6SM SCT040 BKN060
     FM270700 24016KT P6SM SCT050 BKN100=



000
FTUS45 KTFX 261400 AAA
TAFHLN
TAF AMD
KHLN 261419Z 2614/2712 VRB04KT 1 1/2SM -SN BR BKN004 OVC015
      TEMPO 2614/2617 3SM -SN BR OVC015
     FM261700 VRB03KT 6SM -SHSN BR SCT025 BKN050
      TEMPO 2617/2620 3SM -SHSN BR BKN030
     FM262200 VRB03KT P6SM VCSH OVC070
     FM270200 VRB03KT P6SM BKN100=



000
FTUS45 KTFX 261400 AAB
TAFCTB
TAF AMD
KCTB 261410Z 2614/2712 VRB04KT P6SM -SHSN SCT004 BKN060
      TEMPO 2614/2618 3SM -SN BR BKN004
     FM262300 22010KT P6SM SCT040 BKN060 PROB30 2623/2702 4SM -SHSN
      BKN025
     FM270700 24016KT P6SM SCT050 BKN100=



000
FTUS45 KTFX 261300 AAA
TAFCTB
TAF AMD
KCTB 261334Z 2614/2712 VRB04KT P6SM -SHSN SCT020 BKN060
      TEMPO 2615/2618 3SM -SN BR BKN015
     FM262300 22010KT P6SM SCT040 BKN060 PROB30 2623/2702 4SM -SHSN
      BKN025
     FM270700 24016KT P6SM SCT050 BKN100=



000
FTUS45 KTFX 261100
TAFCTB
TAF
KCTB 261120Z 2612/2712 VRB04KT 4SM -SN BR SCT010 BKN040
      TEMPO 2612/2614 2SM -SN BR BKN010
     FM261500 15006KT 3SM -SN SCT015 BKN030
      TEMPO 2615/2618 1SM -SN BR BKN015
     FM262300 22010KT P6SM SCT040 BKN060 PROB30 2623/2702 4SM -SHSN
      BKN025
     FM270700 24016KT P6SM SCT050 BKN100=



000
FTUS45 KTFX 261100
TAFHLN
TAF
KHLN 261120Z 2612/2712 VRB04KT 3SM -SN BR SCT010 BKN025
      TEMPO 2612/2615 1SM -SN BR BKN010
     FM261700 VRB03KT 6SM -SHSN BR SCT025 BKN050
      TEMPO 2617/2620 3SM -SHSN BR BKN030
     FM262200 VRB03KT P6SM VCSH OVC070
     FM270200 VRB03KT P6SM BKN100=



000
FTUS45 KTFX 261100
TAFHVR
TAF
KHVR 261120Z 2612/2712 VRB03KT 4SM -SN BR SCT010 OVC020
      TEMPO 2614/2617 1SM -SN BR OVC010
     FM261700 09006KT 4SM -SN BR SCT015 BKN030
      TEMPO 2619/2622 2SM -SN BR BKN015
     FM262300 10009KT 6SM -SHSN BR SCT025 BKN050
      TEMPO 2700/2703 3SM -SN BR BKN030=



000
FTUS45 KTFX 261100
TAFGTF
TAF
KGTF 261120Z 2612/2712 VRB04KT 2SM -SN BR SCT010 BKN030
      TEMPO 2612/2615 1SM -SN BR BKN010
     FM261600 VRB05KT 4SM -SN BR SCT015 BKN030
      TEMPO 2617/2620 2SM -SN BR BKN015
     FM262000 VRB03KT 6SM -SHSN BR SCT025 BKN050
      TEMPO 2620/2623 3SM -SN BR BKN030
     FM270300 21008KT P6SM BKN070=



000
FTUS45 KTFX 261100
TAFLWT
TAF
KLWT 261120Z 2612/2712 VRB04KT 4SM -SN BR SCT010 BKN030
      TEMPO 2612/2615 2SM -SN BR BKN010
     FM261600 VRB05KT 3SM -SN BR SCT015 BKN030
      TEMPO 2617/2620 1SM -SN BR BKN015
     FM262200 VRB06KT 5SM -SN BR SCT025 BKN040 PROB30 2700/2705 3SM
      -SN BR BKN030
     FM270600 18008KT P6SM SCT040 BKN070=



000
FTUS45 KTFX 261100
TAFBZN
TAF
KBZN 261120Z 2612/2712 VRB03KT 3SM -SN BR SCT020 BKN040
      TEMPO 2612/2614 1SM -SN BR BKN020
     FM261400 VRB03KT P6SM SCT025 BKN050
      TEMPO 2614/2618 4SM -SHSN BR BKN030
     FM262000 VRB05KT P6SM VCSH OVC070
     FM270000 VRB05KT P6SM BKN100=



000
FTUS45 KTFX 261000 AAB
TAFLWT
TAF AMD
KLWT 261028Z 2610/2706 VRB04KT 4SM -SN BR SCT010 BKN030
      TEMPO 2610/2614 2SM -SN BR BKN010
     FM261600 VRB05KT 3SM -SN BR SCT015 BKN030
      TEMPO 2617/2620 1SM -SN BR BKN015
     FM262200 VRB06KT 5SM -SN BR SCT025 BKN040 PROB30 2622/2703 3SM
      -SN BR BKN030=



000
FTUS45 KTFX 261000 AAA
TAFCTB
TAF AMD
KCTB 261025Z 2610/2706 VRB04KT 4SM -SN BR SCT025 BKN050
      TEMPO 2611/2614 2SM -SN BR BKN025
     FM261500 15006KT 3SM -SN SCT015 BKN030
      TEMPO 2615/2618 1SM -SN BR BKN015
     FM262300 22010KT P6SM SCT040 BKN060 PROB30 2623/2702 4SM -SHSN
      BKN025=



000
FTUS45 KTFX 261000 AAB
TAFGTF
TAF AMD
KGTF 261019Z 2610/2706 VRB04KT 2SM -SN BR SCT010 BKN030
      TEMPO 2610/2614 1SM -SN BR BKN010
     FM261600 VRB05KT 6SM -SN BR SCT015 BKN030
      TEMPO 2616/2620 3SM -SN BR BKN015
     FM262300 VRB06KT P6SM VCSH SCT025 OVC040=



000
FTUS45 KTFX 261000 AAA
TAFHLN
TAF AMD
KHLN 261018Z 2610/2706 VRB04KT 3SM -SN BR SCT010 OVC020
      TEMPO 2610/2613 1SM -SN BR BKN015
     FM261400 28006KT 6SM -SHSN BR SCT015 OVC030
     FM262000 VRB04KT P6SM VCSH SCT030 OVC050
     FM270200 VRB05KT P6SM BKN100=



000
FTUS45 KTFX 260700 AAA
TAFGTF
TAF AMD
KGTF 260730Z 2608/2706 16005KT 3SM -SN BR SCT010 BKN030
      TEMPO 2609/2613 3/4SM -SN BR BKN010
     FM261800 VRB05KT 6SM -SN BR SCT015 OVC025
     FM262300 VRB06KT P6SM VCSH SCT025 OVC040=



000
FTUS45 KTFX 260500 AAC
TAFHVR
TAF AMD
KHVR 260545Z 2606/2706 VRB06KT P6SM VCSH BKN020
     FM260900 02005KT 6SM -SN BR OVC020
     FM261100 08011KT 4SM -SN BR SCT010 OVC020
      TEMPO 2613/2617 1SM -SN BR OVC010=



000
FTUS45 KTFX 260500 AAB
TAFHVR
TAF AMD
KHVR 260543Z 2606/2706 VRB06KT P6SM VCSH BKN020
     FM260900 02005KT 6SM -SN BR OVC020
     FM261100 08011KT 4SM -SN BR SCT010 OVC020
      TEMPO 2613/2617 1SM -SN BR OVC010=



000
FTUS45 KTFX 260500 AAA
TAFLWT
TAF AMD
KLWT 260543Z 2606/2706 26008KT P6SM VCSH OVC060
     FM260800 29008KT 6SM -SN BR SCT020 OVC040
     FM261100 25006KT 2SM -SN BR SCT010 OVC020
      TEMPO 2613/2617 1SM -SN BR OVC010=



000
FTUS45 KTFX 260500 AAA
TAFHVR
TAF AMD
KHVR 260543Z 2606/2706 34012KT P6SM VCSH BKN020
     FM260900 02005KT 6SM -SN BR OVC020
     FM261100 08005KT 4SM -SN BR SCT010 OVC020
      TEMPO 2613/2617 1SM -SN BR OVC010=



000
FTUS45 KTFX 260500 RRA
TAFHVR
TAF
KHVR 260541Z 2606/2706 34012KT P6SM VCSH SCT040 OVC070
     FM260900 02005KT 6SM BR VCSH SCT020 OVC040
     FM261100 08005KT 4SM -SN BR SCT010 OVC020
      TEMPO 2613/2617 1SM -SN BR OVC010=



000
FTUS45 KTFX 260500 RRA
TAFLWT
TAF
KLWT 260541Z 2606/2706 29015KT P6SM VCSH OVC060
     FM260800 29008KT 6SM -SN BR SCT020 OVC040
     FM261100 25006KT 2SM -SN BR SCT010 OVC020
      TEMPO 2613/2617 1SM -SN BR OVC010=



000
FTUS45 KTFX 260500 RRA
TAFHLN
TAF
KHLN 260541Z 2606/2706 VRB06KT 3SM -SN BR SCT010 OVC020
      TEMPO 2606/2610 1SM -SN BR OVC010
     FM261400 28006KT 6SM -SHSNRA BR SCT015 OVC030
     FM262000 VRB04KT P6SM VCSH SCT030 OVC050
     FM270200 VRB05KT P6SM BKN100=



000
FTUS45 KTFX 260500 RRA
TAFBZN
TAF
KBZN 260541Z 2606/2706 34005KT 3SM -SN BR SCT005 OVC025
      TEMPO 2606/2610 1SM -SN BR
     FM261300 22005KT P6SM -SHRASN SCT025 OVC040
     FM262000 VRB05KT P6SM VCSH OVC070
     FM270200 VRB05KT P6SM BKN100=



000
FTUS45 KTFX 260500 RRA
TAFCTB
TAF
KCTB 260541Z 2606/2706 35011KT P6SM VCSH SCT030 OVC050
     FM260800 25008KT 5SM -SN BR SCT015 OVC030
     FM261100 15006KT 2SM -SN SCT008 OVC015
      TEMPO 2611/2615 3/4SM -SN BR OVC008=



000
FTUS45 KTFX 260500 RRA
TAFGTF
TAF
KGTF 260541Z 2606/2706 VRB06KT P6SM -SN SCT025 OVC040
     FM260800 05005KT 4SM -SN BR SCT010 OVC025
      TEMPO 2609/2613 3/4SM -SN BR OVC010
     FM261800 VRB05KT 6SM -SN BR SCT015 OVC025
     FM262300 VRB06KT P6SM VCSH SCT025 OVC040=



000
FTUS45 KTFX 260000 AAA
TAFBZN
TAF AMD
KBZN 260050Z 2601/2624 VRB05KT 3SM -SN BR SCT005 OVC030
      TEMPO 2601/2602 3/4SM -SN BR OVC005
     FM261300 22005KT P6SM -SHRASN SCT030 OVC050
     FM261900 VRB05KT P6SM OVC070=



000
FTUS45 KTFX 252300
TAFHLN
TAF
KHLN 252340Z 2600/2624 VRB06KT 5SM -SN BR SCT015 OVC030
      TEMPO 2600/2604 1SM -SN BR OVC015
     FM260400 VRB04KT 2SM -SN BR SCT008 OVC015
     FM261400 28006KT 6SM -SHSNRA BR SCT015 OVC030
     FM262000 VRB04KT P6SM SCT030 OVC050=



000
FTUS45 KTFX 252300
TAFHVR
TAF
KHVR 252340Z 2600/2624 34012KT P6SM VCSH SCT040 OVC070
     FM260500 02005KT 6SM BR VCSH SCT020 OVC040
     FM261100 08005KT 4SM -SN BR SCT010 OVC020
      TEMPO 2613/2617 1SM -SN BR OVC010=



000
FTUS45 KTFX 252300
TAFBZN
TAF
KBZN 252340Z 2600/2624 VRB05KT 3SM -SN BR SCT012 OVC030
      TEMPO 2600/2602 3/4SM -SN BR OVC012
     FM261300 22005KT P6SM -SHRASN SCT030 OVC050
     FM261900 VRB05KT P6SM OVC070=



000
FTUS45 KTFX 252300
TAFGTF
TAF
KGTF 252340Z 2600/2624 36008KT P6SM VCSH SCT030 OVC050
     FM260400 05005KT 5SM -SN BR SCT020 OVC040
     FM260900 09006KT 1SM -SN BR SCT008 OVC012
      TEMPO 2609/2613 1/2SM SN FZFG OVC008
     FM262000 VRB05KT 6SM -SN BR SCT015 OVC025=



000
FTUS45 KTFX 252300
TAFCTB
TAF
KCTB 252340Z 2600/2624 35011KT P6SM VCSH SCT030 OVC050
     FM260400 25008KT 5SM -SN BR SCT015 OVC030
     FM260900 15006KT 1SM -SN SCT008 OVC015
      TEMPO 2610/2614 1/2SM SN FZFG OVC008=



000
FTUS45 KTFX 252300
TAFLWT
TAF
KLWT 252340Z 2600/2624 29015KT P6SM VCSH OVC060
     FM260200 29008KT 6SM -SN BR SCT020 OVC040
     FM260700 25006KT 2SM -SN BR SCT010 OVC020
      TEMPO 2613/2617 1SM -SN BR OVC010=



000
FTUS45 KTFX 252100 AAA
TAFLWT
TAF AMD
KLWT 252133Z 2522/2618 29015KT P6SM VCSH OVC050
      TEMPO 2522/2601 1SM -SN BR OVC010
     FM260100 29008KT 6SM -SN OVC015
     FM260700 25006KT 3/4SM -SN BR OVC010=



000
FTUS45 KTFX 252000 AAA
TAFHVR
TAF AMD
KHVR 252058Z 2521/2618 34015KT P6SM SCT040 BKN120
      TEMPO 2521/2524 32025G35KT
     FM260300 02005KT P6SM VCSH OVC025
     FM261200 08005KT 4SM -SHSN BR OVC025=



000
FTUS45 KTFX 252000 AAA
TAFCTB
TAF AMD
KCTB 252010Z 2520/2618 34014KT P6SM OVC070
      TEMPO 2520/2522 34014G30KT
     FM252200 35015KT P6SM VCSH SCT020 OVC035
      TEMPO 2522/2602 4SM -SHSN BR OVC025
     FM260200 25008KT 4SM -SN BR OVC025
     FM260900 15006KT 3/4SM -SN OVC010=



000
FTUS45 KTFX 252000 AAA
TAFBZN
TAF AMD
KBZN 252009Z 2520/2618 31012KT P6SM -RASN OVC035
     FM260200 25008KT 4SM -SN BR SCT005 BKN025
      TEMPO 2608/2612 1SM -SN BR BKN005
     FM261500 22005KT P6SM -SHRASN SCT015 BKN035=



000
FTUS45 KTFX 251800 CCA
TAFLWT
TAF COR
KLWT 251832Z 2519/2618 33012G25KT 2SM -SN BR SCT005 OVC025
      TEMPO 2519/2522 1SM -SN BR OVC010
     FM252200 32015KT 1SM -SN BR OVC010
     FM260100 29008KT 6SM -SN OVC015
     FM260700 25006KT 3/4SM -SN BR OVC010=



000
FTUS45 KTFX 251800 AAA
TAFGTF
TAF AMD
KGTF 251830Z 2519/2618 36008KT P6SM SCT040 OVC060
      TEMPO 2519/2522 3SM -SHSNRA BKN030
     FM252200 34010KT P6SM OVC060
     FM260300 05005KT 5SM -SN BR SCT025 OVC040
     FM260900 09006KT 3/4SM -SN BR OVC008=



000
FTUS45 KTFX 251700
TAFHLN
TAF
KHLN 251727Z 2518/2618 28006KT P6SM SCT050 OVC060
     FM252100 28006KT P6SM -SHRASN SCT020 BKN040
     FM260200 28006KT 1SM -SN BR OVC015
     FM261500 28006KT P6SM -SHSNRA SCT015 BKN035=



000
FTUS45 KTFX 251700
TAFGTF
TAF
KGTF 251727Z 2518/2618 32015G28KT P6SM SCT040 OVC060
      TEMPO 2518/2522 3SM -SHSNRA BKN030
     FM252200 34010KT P6SM OVC060
     FM260300 05005KT 5SM -SN BR SCT025 OVC040
     FM260900 09006KT 3/4SM -SN BR OVC008=



000
FTUS45 KTFX 251700
TAFBZN
TAF
KBZN 251727Z 2518/2618 35008KT P6SM SCT015 BKN035
      TEMPO 2518/2520 1SM -SN BR OVC015
     FM252000 35008KT 1SM -SN BR OVC015
     FM261500 22005KT P6SM -SHRASN SCT015 BKN035=



000
FTUS45 KTFX 251700
TAFLWT
TAF
KLWT 251727Z 2518/2618 31008KT 2SM -SN SCT005 OVC025
      TEMPO 2518/2522 1SM -SN BR OVC010
     FM252200 32015KT 1SM -SN BR OVC010
     FM260100 29008KT 6SM -SN OVC015
     FM260700 25006KT 3/4SM -SN BR OVC010=



000
FTUS45 KTFX 251700
TAFCTB
TAF
KCTB 251727Z 2518/2618 32014KT P6SM OVC070
      TEMPO 2519/2522 32014G38KT
     FM252200 35015KT P6SM VCSH SCT020 OVC035
      TEMPO 2522/2602 4SM -SHSN BR OVC025
     FM260200 25008KT 4SM -SN BR OVC025
     FM260900 15006KT 3/4SM -SN OVC010=



000
FTUS45 KTFX 251700
TAFHVR
TAF
KHVR 251727Z 2518/2618 29015KT P6SM SCT035 BKN080
      TEMPO 2518/2520 34015G25KT
     FM252000 34015KT P6SM BKN040
     FM260300 02005KT P6SM VCSH OVC025
     FM261200 08005KT 4SM -SHSN BR OVC025=



000
FTUS45 KTFX 251500 AAA
TAFBZN
TAF AMD
KBZN 251537Z 2516/2612 VRB06KT P6SM OVC060
      TEMPO 2516/2518 3SM -SN SCT012 BKN025
     FM251800 24008KT 3/4SM -SN OVC012=



000
FTUS45 KTFX 251500 AAA
TAFLWT
TAF AMD
KLWT 251503Z 2515/2612 31012G25KT 3SM -SN SCT005 OVC025
      TEMPO 2515/2519 1/2SM -SN FG OVC005
     FM251900 32015G25KT 1SM -SN OVC010
     FM260100 29008KT 6SM -SN OVC015
     FM260700 25006KT 3/4SM -SN BR OVC010=



000
FTUS45 KTFX 251500 AAA
TAFHVR
TAF AMD
KHVR 251500Z 2515/2612 29015KT P6SM SCT035 OVC120
     FM251600 32015KT P6SM SCT045 BKN120
     FM252000 34015G25KT P6SM BKN040
     FM260300 35010KT P6SM VCSH OVC025=



000
FTUS45 KTFX 251400 AAA
TAFCTB
TAF AMD
KCTB 251458Z 2515/2612 32014KT P6SM OVC070
     FM251900 35015G28KT P6SM VCSH SCT020 OVC035
     FM252300 03008KT P6SM OVC025
     FM260900 15006KT 3/4SM -SN OVC010=



000
FTUS45 KTFX 251400 AAA
TAFGTF
TAF AMD
KGTF 251457Z 2515/2612 23011KT P6SM SCT025 BKN040
      TEMPO 2515/2518 5SM -RASN BKN025
     FM251800 32015G28KT P6SM SCT040 OVC080
      TEMPO 2518/2522 6SM -RASN OVC035
     FM252200 34010KT 1SM -SN OVC015
     FM260600 09006KT 3/4SM -SN BR OVC007=



000
FTUS45 KTFX 251100
TAFGTF
TAF
KGTF 251139Z 2512/2612 23011KT P6SM BKN090
     FM251800 32015G28KT P6SM SCT040 OVC080
      TEMPO 2518/2522 6SM -RASN OVC035
     FM252200 34010KT 1SM -SN OVC015
     FM260600 09006KT 3/4SM -SN BR OVC007=



000
FTUS45 KTFX 251100
TAFHVR
TAF
KHVR 251139Z 2512/2612 29015G30KT P6SM -RA OVC035
     FM251600 32015G25KT P6SM SCT045 BKN150
     FM252000 34015G25KT P6SM BKN040
     FM260300 35010KT P6SM VCSH OVC025=



000
FTUS45 KTFX 251100
TAFBZN
TAF
KBZN 251139Z 2512/2612 VRB06KT P6SM OVC060
     FM251500 24008KT 3/4SM -SN OVC012=



000
FTUS45 KTFX 251100
TAFLWT
TAF
KLWT 251139Z 2512/2612 25011KT P6SM OVC040
     FM251600 28012KT 3SM -SN OVC025
     FM251900 32015G25KT 1SM -SN OVC010
     FM260100 29008KT 6SM -SN OVC015
     FM260700 25006KT 3/4SM -SN BR OVC010=



000
FTUS45 KTFX 251100
TAFCTB
TAF
KCTB 251139Z 2512/2612 32006KT P6SM OVC070
     FM251900 35015G28KT P6SM VCSH SCT020 OVC035
     FM252300 03008KT P6SM OVC025
     FM260900 15006KT 3/4SM -SN OVC010=



000
FTUS45 KTFX 251100
TAFHLN
TAF
KHLN 251139Z 2512/2612 VRB06KT P6SM OVC040
     FM251500 29006KT 6SM -SN OVC025
     FM252100 31006KT 3/4SM -SN OVC012=



000
FTUS45 KTFX 250500 AAA
TAFLWT
TAF AMD
KLWT 250542Z 2506/2606 24015KT P6SM SCT050 OVC070
     FM251000 30018KT P6SM VCSH SCT030 OVC050
     FM251300 35015KT 4SM -SN BR SCT025 OVC040
     FM252300 02004KT 2SM -SN BR SCT015 OVC025=



000
FTUS45 KTFX 250500
TAFGTF
TAF
KGTF 250540Z 2506/2606 22018G28KT P6SM OVC060
     FM251000 26008KT P6SM VCSH OVC040
     FM251500 32011KT P6SM -SNRA SCT025 OVC040
     FM252000 32011KT 4SM -SN BR SCT015 OVC025
     FM260200 02006KT 2SM -SN BR SCT010 OVC020=



000
FTUS45 KTFX 250500
TAFLWT
TAF
KLWT 250540Z 2506/2606 24015KT P6SM SCT050 OVC070
     FM250800 29014KT P6SM VCSH SCT030 OVC050
     FM251000 30018KT P6SM VCSH SCT040 OVC060
      TEMPO 2511/2515 -SN OVC030
     FM252200 35015KT 5SM -SN BR SCT025 OVC040
     FM260400 02004KT 2SM -SN BR SCT015 OVC025=



000
FTUS45 KTFX 250500
TAFHVR
TAF
KHVR 250540Z 2506/2606 22015G25KT P6SM BKN070
     FM250900 32011KT P6SM SCT030 OVC050
      TEMPO 2510/2514 -SN OVC030
     FM251600 28008KT P6SM SCT050 BKN070
     FM252300 30015KT P6SM -SN SCT025 OVC040=



000
FTUS45 KTFX 250500
TAFBZN
TAF
KBZN 250540Z 2506/2606 VRB05KT P6SM BKN060
     FM250900 24008KT P6SM VCSH SCT040 OVC060
     FM251200 26011KT 6SM -SN BR SCT025 OVC040
     FM251700 30007KT 2SM -SN BR SCT015 OVC025=



000
FTUS45 KTFX 250500
TAFHLN
TAF
KHLN 250540Z 2506/2606 VRB06KT P6SM BKN060
     FM251000 VRB06KT P6SM VCSH SCT030 OVC050
     FM251300 VRB06KT 4SM -SN BR OVC030
     FM251600 26006KT 2SM -SN BR SCT010 OVC020=



000
FTUS45 KTFX 250500
TAFCTB
TAF
KCTB 250540Z 2506/2606 26020G32KT P6SM OVC100
     FM251000 30018KT P6SM VCSH SCT040 OVC060
      TEMPO 2511/2515 -SN OVC030
     FM252200 35015KT 5SM -SN BR SCT025 OVC040
     FM260400 02004KT 2SM -SN BR SCT015 OVC025=



000
FTUS45 KTFX 242300
TAFHLN
TAF
KHLN 242338Z 2500/2524 28012KT P6SM SCT070 BKN120
     FM250400 26008KT P6SM BKN070
     FM250900 VRB06KT P6SM VCSH SCT030 OVC050
     FM251100 VRB06KT 4SM -SN BR OVC030
     FM251500 26006KT 2SM -SN BR SCT015 OVC030=



000
FTUS45 KTFX 242300
TAFBZN
TAF
KBZN 242338Z 2500/2524 28010KT P6SM BKN080
     FM250700 20008KT P6SM VCSH SCT040 OVC060
     FM251100 VRB06KT 6SM -SN BR SCT025 OVC040
     FM251700 26006KT 2SM -SN BR SCT015 OVC025=



000
FTUS45 KTFX 242300
TAFHVR
TAF
KHVR 242338Z 2500/2524 29008KT P6SM BKN120
     FM250400 22015KT P6SM SCT050 BKN070
     FM250900 32011KT P6SM SCT030 OVC050 PROB30 2510/2515 3SM -SN BR
      OVC020
     FM251600 28008KT P6SM SCT050 BKN070
     FM252300 30015KT P6SM -SN SCT025 OVC040=



000
FTUS45 KTFX 242300
TAFLWT
TAF
KLWT 242338Z 2500/2524 30012G22KT P6SM BKN120
     FM250200 24016KT P6SM SCT050 OVC070
     FM250800 29014KT P6SM VCSH SCT030 OVC050 PROB30 2512/2518 3SM
      -SN OVC010=



000
FTUS45 KTFX 242300
TAFGTF
TAF
KGTF 242338Z 2500/2524 24016KT P6SM OVC100
     FM250700 22012KT P6SM SCT060 OVC080
     FM251200 26008KT P6SM VCSH OVC040
     FM251500 32011KT 5SM -SN BR SCT025 OVC040
     FM252000 32011KT 2SM -SN SCT015 OVC025=



000
FTUS45 KTFX 242300
TAFCTB
TAF
KCTB 242338Z 2500/2524 26018G28KT P6SM OVC120
     FM250700 25025KT P6SM OVC090
     FM251000 32012KT P6SM VCSH SCT040 OVC060 PROB30 2510/2515 5SM
      -SN OVC025
     FM252200 32015KT P6SM -SN SCT025 OVC040=



000
FTUS45 KTFX 242100 AAB
TAFLWT
TAF AMD
KLWT 242126Z 2421/2518 30015G25KT P6SM OVC060
     FM242300 25007KT P6SM SCT060 BKN250
     FM250200 24014KT P6SM BKN090
     FM251200 29014KT P6SM OVC020 PROB30 2512/2518 3SM -SN OVC010=



000
FTUS45 KTFX 242100 AAB
TAFLWT
TAF AMD
KLWT 242126Z 2421/2518 30015G25KT P6SM OVC060
     FM242300 25007KT P6SM SCT060 BKN250
     FM250200 24014KT P6SM BKN090
     FM251200 29014KT P6SM OVC020 PROB30 2512/2518 3SM -SN OVC010=



000
FTUS45 KTFX 242100 AAA
TAFGTF
TAF AMD
KGTF 242124Z 2421/2518 24015G25KT P6SM SCT090 BKN200
     FM250200 22020KT P6SM BKN080
     FM251500 36008KT P6SM OVC040 PROB30 2515/2518 2SM -SN OVC020=



000
FTUS45 KTFX 242100 AAA
TAFGTF
TAF AMD
KGTF 242124Z 2421/2518 24015G25KT P6SM SCT090 BKN200
     FM250200 22020KT P6SM BKN080
     FM251500 36008KT P6SM OVC040 PROB30 2515/2518 2SM -SN OVC020=



000
FTUS45 KTFX 242100 AAA
TAFHLN
TAF AMD
KHLN 242123Z 2421/2518 27020G30KT P6SM SCT050 SCT100 BKN250
     FM250000 26012KT P6SM BKN090
     FM251100 VRB06KT P6SM OVC050
      TEMPO 2511/2515 3SM -SN OVC025=



000
FTUS45 KTFX 242100 AAA
TAFHLN
TAF AMD
KHLN 242123Z 2421/2518 27020G30KT P6SM SCT050 SCT100 BKN250
     FM250000 26012KT P6SM BKN090
     FM251100 VRB06KT P6SM OVC050
      TEMPO 2511/2515 3SM -SN OVC025=



000
FTUS45 KTFX 241900 AAA
TAFLWT
TAF AMD
KLWT 241928Z 2419/2518 30015KT P6SM OVC060
     FM242300 25007KT P6SM SCT060 BKN250
     FM250200 24014KT P6SM BKN090
     FM251200 29014KT P6SM OVC020 PROB30 2512/2518 3SM -SN OVC010=



000
FTUS45 KTFX 241700
TAFHLN
TAF
KHLN 241720Z 2418/2518 27012KT P6SM SCT050 SCT100 BKN250
     FM250000 VRB06KT P6SM BKN090
     FM251100 VRB06KT P6SM OVC050
      TEMPO 2511/2515 3SM -SN OVC025=



000
FTUS45 KTFX 241700
TAFHVR
TAF
KHVR 241720Z 2418/2518 25012KT P6SM BKN100
     FM242100 25012KT P6SM SCT050 SCT100 BKN250
     FM250400 22015KT P6SM BKN050
     FM250900 32010KT P6SM OVC040 PROB30 2509/2515 2SM -SN OVC010
     FM251600 32014KT P6SM BKN070=



000
FTUS45 KTFX 241700
TAFLWT
TAF
KLWT 241720Z 2418/2518 30008KT P6SM OVC060
     FM242300 25007KT P6SM SCT060 BKN250
     FM250200 24014KT P6SM BKN090
     FM251200 29014KT P6SM OVC020 PROB30 2512/2518 3SM -SN OVC010=



000
FTUS45 KTFX 241700
TAFGTF
TAF
KGTF 241720Z 2418/2518 24015KT P6SM SCT090 BKN200
     FM250200 22020KT P6SM BKN080
     FM251500 36008KT P6SM OVC040 PROB30 2515/2518 2SM -SN OVC020=



000
FTUS45 KTFX 241700
TAFBZN
TAF
KBZN 241720Z 2418/2518 28010KT P6SM BKN080
     FM242000 27008KT P6SM SCT080 BKN200
     FM250100 VRB06KT P6SM SCT080 BKN200
     FM250600 VRB06KT P6SM BKN060
     FM251100 VRB06KT 6SM -SN OVC035
     FM251700 26005KT 2SM -SN OVC020=



000
FTUS45 KTFX 241700
TAFCTB
TAF
KCTB 241720Z 2418/2518 27018G25KT P6SM BKN250
     FM250100 25025KT P6SM BKN100
     FM251000 32012KT P6SM OVC050 PROB30 2510/2516 5SM -SN OVC025
     FM251600 32015KT P6SM BKN100=



000
FTUS45 KTFX 241600 AAA
TAFGTF
TAF AMD
KGTF 241619Z 2416/2512 24012KT P6SM BKN090
     FM241800 24018G28KT P6SM SCT090 BKN180
     FM250300 22015G28KT P6SM BKN090=



000
FTUS45 KTFX 241600 AAA
TAFGTF
TAF AMD
KGTF 241619Z 2416/2512 24012KT P6SM BKN090
     FM241800 24018G28KT P6SM SCT090 BKN180
     FM250300 22015G28KT P6SM BKN090=



000
FTUS45 KTFX 241500 AAA
TAFHVR
TAF AMD
KHVR 241539Z 2416/2512 24008KT P6SM SCT100
     FM250000 26010KT P6SM SCT100
     FM250900 25015KT P6SM BKN050=



000
FTUS45 KTFX 241500 AAA
TAFBZN
TAF AMD
KBZN 241537Z 2416/2512 26010KT P6SM BKN060
     FM241800 26010KT P6SM SCT100
     FM250600 VRB06KT P6SM OVC100
     FM250900 VRB06KT 6SM -SN OVC035=



000
FTUS45 KTFX 241400 AAA
TAFLWT
TAF AMD
KLWT 241437Z 2415/2512 29012KT P6SM BKN060
     FM242100 27010KT P6SM SCT100 BKN150
     FM250600 25015G25KT P6SM BKN100
     FM250900 25015G25KT 6SM -SN OVC035=



000
FTUS45 KTFX 241100
TAFGTF
TAF
KGTF 241138Z 2412/2512 28012KT P6SM BKN090
     FM241800 24018G28KT P6SM SCT090 BKN180
     FM250300 22015G28KT P6SM BKN090=



000
FTUS45 KTFX 241100
TAFBZN
TAF
KBZN 241138Z 2412/2512 27018G28KT P6SM BKN060
     FM241800 26010KT P6SM SCT100
     FM250600 VRB06KT P6SM OVC100
     FM250900 VRB06KT 6SM -SN OVC035=



000
FTUS45 KTFX 241100
TAFHVR
TAF
KHVR 241138Z 2412/2512 28015KT P6SM OVC100
     FM250000 26010KT P6SM SCT100
     FM250900 25015KT P6SM BKN050=



000
FTUS45 KTFX 241100
TAFHLN
TAF
KHLN 241138Z 2412/2512 27008KT P6SM BKN045
     FM241800 25010G20KT P6SM SCT070 BKN120
     FM250900 24010G18KT P6SM VCSH OVC035=



000
FTUS45 KTFX 241100
TAFLWT
TAF
KLWT 241138Z 2412/2512 25011KT P6SM BKN060
     FM242100 27010KT P6SM SCT100 BKN150
     FM250600 25015G25KT P6SM BKN100
     FM250900 25015G25KT 6SM -SN OVC035=



000
FTUS45 KTFX 241100
TAFCTB
TAF
KCTB 241138Z 2412/2512 26015KT P6SM BKN090
     FM241600 27015G28KT P6SM SCT090
     FM250300 25020G35KT P6SM SCT090 BKN150=



000
FTUS45 KTFX 240500
TAFBZN
TAF
KBZN 240533Z 2406/2506 26008KT P6SM VCSH SCT030 OVC050
     FM241400 26010KT P6SM OVC070
     FM250000 16005KT P6SM SCT100=



000
FTUS45 KTFX 240500
TAFHVR
TAF
KHVR 240533Z 2406/2506 26008KT P6SM VCSH OVC070
     FM241200 25012KT P6SM BKN080=



000
FTUS45 KTFX 240500
TAFLWT
TAF
KLWT 240533Z 2406/2506 24012KT P6SM VCSH OVC050
     FM241400 29010KT P6SM BKN060
     FM242100 27010KT P6SM SCT100=



000
FTUS45 KTFX 240500
TAFGTF
TAF
KGTF 240533Z 2406/2506 23014KT P6SM SCT060 BKN100
     FM240800 26012KT P6SM VCSH OVC050
     FM241700 25012KT P6SM SCT120
     FM250300 22015KT P6SM BKN090=



000
FTUS45 KTFX 240500
TAFHLN
TAF
KHLN 240533Z 2406/2506 26015G25KT P6SM VCSH OVC050
     FM240900 28010KT P6SM BKN060
     FM241600 27010KT P6SM SCT050 SCT090=



000
FTUS45 KTFX 240500
TAFCTB
TAF
KCTB 240533Z 2406/2506 29011KT P6SM BKN100
     FM241600 27015G25KT P6SM FEW080=



000
FTUS45 KTFX 232300
TAFHLN
TAF
KHLN 232320Z 2400/2424 28011KT P6SM BKN060 OVC100
     FM240300 26010KT P6SM OVC050
     FM241600 27010KT P6SM SCT050 SCT090=



000
FTUS45 KTFX 232300
TAFGTF
TAF
KGTF 232320Z 2400/2424 23014KT P6SM SCT060 BKN100
     FM240800 26012KT P6SM VCSH OVC050
     FM241700 25012KT P6SM SCT080=



000
FTUS45 KTFX 232300
TAFLWT
TAF
KLWT 232320Z 2400/2424 29012G20KT P6SM BKN060
     FM240200 25008KT P6SM BKN060
     FM240600 28012KT P6SM VCSH OVC030 PROB30 2409/2414 4SM -SHSN
      OVC015
     FM241600 29010KT P6SM BKN060=



000
FTUS45 KTFX 232300
TAFHVR
TAF
KHVR 232320Z 2400/2424 23010KT P6SM BKN150
     FM240200 22008KT P6SM BKN060
     FM240500 29008KT P6SM VCSH OVC040
     FM241600 25014KT P6SM BKN070=



000
FTUS45 KTFX 232300
TAFCTB
TAF
KCTB 232320Z 2400/2424 26022G30KT P6SM BKN120
     FM240300 29016KT P6SM BKN060
     FM241400 27015KT P6SM FEW060=



000
FTUS45 KTFX 232300
TAFBZN
TAF
KBZN 232320Z 2400/2424 28007KT P6SM OVC060
     FM240300 26008KT P6SM VCSH SCT030 OVC050
     FM241200 26010KT P6SM OVC070=



000
FTUS45 KTFX 231900 AAA
TAFHLN
TAF AMD
KHLN 231918Z 2319/2418 30014G24KT P6SM BKN050
     FM240300 26010KT P6SM OVC050 PROB30 2404/2409 6SM -SHSN OVC035
     FM241600 27010KT P6SM SCT050 SCT090=



000
FTUS45 KTFX 231900 AAA
TAFLWT
TAF AMD
KLWT 231917Z 2319/2418 29018G26KT P6SM BKN250
     FM240200 25008KT P6SM BKN060 PROB30 2405/2409 -SHSN OVC030
     FM240900 28012KT P6SM OVC030 PROB30 2409/2414 4SM -SHSN OVC015
     FM241600 29010KT P6SM BKN060=



    US Dept of Commerce
    National Oceanic and Atmospheric Administration
    National Weather Service
    1325 East West Highway
    Silver Spring, MD 20910
    Page Author: NWS Internet Services Team
Disclaimer
Information Quality
Credits
Glossary
Privacy Policy
Freedom of Information Act (FOIA)
About Us
Career Opportunities